createdAt,value
2022-09-28T00:01:20.856Z,2.00
2022-09-28T00:03:51.697Z,1.85
2022-09-28T00:06:22.191Z,2.88
2022-09-28T00:08:51.931Z,2.50
2022-09-28T00:11:21.227Z,1.92
2022-09-28T00:13:53.668Z,1.92
2022-09-28T00:16:28.770Z,1.95
2022-09-28T00:18:55.907Z,1.92
2022-09-28T00:21:27.198Z,1.73
2022-09-28T00:24:12.973Z,2.63
2022-09-28T00:26:51.871Z,2.17
2022-09-28T00:29:21.694Z,2.90
2022-09-28T00:31:52.512Z,2.60
2022-09-28T00:34:20.844Z,2.75
2022-09-28T00:36:49.459Z,2.53
2022-09-28T00:39:17.793Z,2.72
2022-09-28T00:41:46.795Z,2.85
2022-09-28T00:44:25.829Z,1.60
2022-09-28T00:47:08.162Z,2.90
2022-09-28T00:49:45.777Z,3.25
2022-09-28T00:52:20.286Z,3.03
2022-09-28T00:54:49.277Z,2.67
2022-09-28T00:57:17.103Z,2.38
2022-09-28T00:59:44.612Z,3.13
2022-09-28T01:02:11.806Z,4.22
2022-09-28T01:04:39.325Z,4.07
2022-09-28T01:07:09.324Z,3.53
2022-09-28T01:09:40.744Z,3.72
2022-09-28T01:12:08.191Z,3.65
2022-09-28T01:14:35.445Z,4.07
2022-09-28T01:17:16.805Z,3.58
2022-09-28T01:20:34.177Z,3.75
2022-09-28T01:23:13.073Z,3.70
2022-09-28T01:25:54.187Z,3.67
2022-09-28T01:28:26.582Z,3.28
2022-09-28T01:31:11.105Z,4.32
2022-09-28T01:33:45.489Z,4.00
2022-09-28T01:36:19.597Z,3.38
2022-09-28T01:38:53.548Z,3.95
2022-09-28T01:41:24.200Z,3.75
2022-09-28T01:43:57.802Z,4.23
2022-09-28T01:46:37.299Z,4.50
2022-09-28T01:49:34.263Z,3.65
2022-09-28T01:52:18.560Z,3.70
2022-09-28T01:55:06.523Z,4.03
2022-09-28T01:57:44.806Z,3.97
2022-09-28T02:00:15.756Z,4.80
2022-09-28T02:03:16.765Z,3.88
2022-09-28T02:06:04.204Z,5.53
2022-09-28T02:08:55.019Z,4.53
2022-09-28T02:11:31.061Z,4.72
2022-09-28T02:14:06.097Z,5.15
2022-09-28T02:16:43.017Z,5.00
2022-09-28T02:19:15.991Z,4.70
2022-09-28T02:22:29.237Z,4.90
2022-09-28T02:25:05.706Z,4.53
2022-09-28T02:27:55.687Z,4.53
2022-09-28T02:30:22.921Z,4.82
2022-09-28T02:32:55.196Z,5.72
2022-09-28T02:35:22.771Z,6.20
2022-09-28T02:37:50.692Z,5.57
2022-09-28T02:40:32.804Z,5.78
2022-09-28T02:43:29.535Z,5.47
2022-09-28T02:46:18.283Z,6.85
2022-09-28T02:49:21.917Z,6.15
2022-09-28T02:51:59.737Z,7.70
2022-09-28T02:55:11.776Z,8.25
2022-09-28T02:58:29.163Z,9.70
2022-09-28T03:01:22.856Z,9.60
2022-09-28T03:04:26.884Z,8.80
2022-09-28T03:07:13.448Z,10.68
2022-09-28T03:09:52.744Z,9.85
2022-09-28T03:12:23.606Z,10.35
2022-09-28T03:15:33.922Z,10.55
2022-09-28T03:18:01.498Z,10.70
2022-09-28T03:20:32.163Z,11.38
2022-09-28T03:23:23.326Z,10.75
2022-09-28T03:25:47.356Z,10.25
2022-09-28T03:28:14.713Z,10.82
2022-09-28T03:30:43.469Z,10.32
2022-09-28T03:33:11.265Z,9.73
2022-09-28T03:35:39.145Z,8.35
2022-09-28T03:38:06.282Z,8.05
2022-09-28T03:40:36.916Z,8.52
2022-09-28T03:43:03.969Z,8.23
2022-09-28T03:45:31.015Z,8.00
2022-09-28T03:47:58.562Z,9.20
2022-09-28T03:50:25.894Z,8.55
2022-09-28T03:52:52.858Z,7.25
2022-09-28T03:55:19.846Z,8.20
2022-09-28T03:57:54.984Z,7.03
2022-09-28T04:00:21.939Z,7.97
2022-09-28T04:02:49.466Z,9.77
2022-09-28T04:05:16.640Z,10.77
2022-09-28T04:07:43.653Z,11.05
2022-09-28T04:10:10.604Z,10.98
2022-09-28T04:12:40.915Z,11.10
2022-09-28T04:15:08.904Z,12.85
2022-09-28T04:17:39.937Z,12.20
2022-09-28T04:20:12.773Z,12.20
2022-09-28T04:22:45.420Z,12.68
2022-09-28T04:25:12.392Z,11.48
2022-09-28T04:27:57.836Z,12.30
2022-09-28T04:30:24.910Z,13.75
2022-09-28T04:32:53.542Z,11.70
2022-09-28T04:35:21.329Z,11.80
2022-09-28T04:37:48.488Z,11.13
2022-09-28T04:40:15.810Z,12.63
2022-09-28T04:42:43.289Z,12.90
2022-09-28T04:45:10.889Z,11.25
2022-09-28T04:47:42.380Z,12.18
2022-09-28T04:50:38.687Z,11.55
2022-09-28T04:53:21.986Z,11.27
2022-09-28T04:56:04.170Z,11.20
2022-09-28T04:58:33.335Z,10.30
2022-09-28T05:01:05.973Z,10.60
2022-09-28T05:03:51.550Z,10.80
2022-09-28T05:06:41.357Z,10.55
2022-09-28T05:09:09.583Z,10.13
2022-09-28T05:11:36.573Z,8.93
2022-09-28T05:14:07.157Z,9.23
2022-09-28T05:16:34.439Z,8.25
2022-09-28T05:19:19.380Z,8.32
2022-09-28T05:21:47.006Z,8.00
2022-09-28T05:24:14.571Z,7.00
2022-09-28T05:26:44.870Z,6.45
2022-09-28T05:29:12.028Z,6.03
2022-09-28T05:31:57.939Z,5.50
2022-09-28T05:34:49.541Z,5.40
2022-09-28T05:37:24.036Z,5.75
2022-09-28T05:39:51.081Z,4.38
2022-09-28T05:42:18.207Z,5.25
2022-09-28T05:44:45.290Z,4.53
2022-09-28T05:47:13.286Z,3.72
2022-09-28T05:49:40.279Z,4.38
2022-09-28T05:52:07.271Z,4.32
2022-09-28T05:54:37.671Z,3.90
2022-09-28T05:57:07.075Z,3.65
2022-09-28T05:59:35.248Z,3.35
2022-09-28T06:02:04.376Z,3.53
2022-09-28T06:04:31.934Z,2.58
2022-09-28T06:06:59.848Z,3.50
2022-09-28T06:09:27.455Z,3.58
2022-09-28T06:12:13.206Z,3.30
2022-09-28T06:14:44.766Z,3.55
2022-09-28T06:17:12.732Z,3.90
2022-09-28T06:19:41.386Z,3.55
2022-09-28T06:22:26.290Z,3.97
2022-09-28T06:25:04.297Z,3.88
2022-09-28T06:27:31.492Z,3.17
2022-09-28T06:30:00.933Z,2.95
2022-09-28T06:32:30.011Z,3.05
2022-09-28T06:34:57.806Z,2.80
2022-09-28T06:37:27.303Z,2.47
2022-09-28T06:39:56.564Z,2.22
2022-09-28T06:42:24.345Z,3.33
2022-09-28T06:45:25.593Z,3.08
2022-09-28T06:48:11.080Z,2.67
2022-09-28T06:50:41.482Z,2.40
2022-09-28T06:53:29.829Z,2.17
2022-09-28T06:56:01.369Z,2.65
2022-09-28T06:58:29.914Z,2.60
2022-09-28T07:00:59.518Z,3.10
2022-09-28T07:03:28.616Z,3.33
2022-09-28T07:05:57.004Z,3.42
2022-09-28T07:08:41.493Z,3.17
2022-09-28T07:11:27.500Z,2.78
2022-09-28T07:14:24.954Z,2.45
2022-09-28T07:17:12.416Z,2.13
2022-09-28T07:19:41.429Z,2.50
2022-09-28T07:22:08.821Z,2.30
2022-09-28T07:24:36.147Z,2.45
2022-09-28T07:27:39.634Z,2.55
2022-09-28T07:30:20.473Z,1.30
2022-09-28T07:33:32.878Z,1.67
2022-09-28T07:36:21.012Z,2.63
2022-09-28T07:38:48.604Z,1.88
2022-09-28T07:41:21.619Z,2.42
2022-09-28T07:43:51.071Z,1.90
2022-09-28T07:46:21.323Z,2.20
2022-09-28T07:48:55.707Z,2.38
2022-09-28T07:51:52.819Z,1.88
2022-09-28T07:54:39.459Z,2.13
2022-09-28T07:57:07.034Z,2.03
2022-09-28T07:59:57.238Z,1.70
2022-09-28T08:02:45.740Z,1.30
2022-09-28T08:05:17.724Z,1.52
2022-09-28T08:07:44.993Z,1.40
2022-09-28T08:10:12.972Z,1.20
2022-09-28T08:13:04.763Z,1.23
2022-09-28T08:15:55.296Z,1.13
2022-09-28T08:18:32.837Z,1.27
2022-09-28T08:21:21.681Z,1.40
2022-09-28T08:23:49.790Z,1.73
2022-09-28T08:26:17.366Z,1.35
2022-09-28T08:28:47.747Z,2.22
2022-09-28T08:31:33.458Z,2.00
2022-09-28T08:34:21.253Z,1.70
2022-09-28T08:37:11.138Z,2.03
2022-09-28T08:40:01.695Z,3.35
2022-09-28T08:43:00.490Z,1.55
2022-09-28T08:45:36.672Z,0.73
2022-09-28T08:48:56.225Z,1.10
2022-09-28T08:51:59.793Z,1.10
2022-09-28T08:55:02.796Z,1.20
2022-09-28T08:57:58.210Z,0.77
2022-09-28T09:00:54.189Z,1.02
2022-09-28T09:03:35.873Z,1.30
2022-09-28T09:06:52.008Z,3.15
2022-09-28T09:10:19.282Z,1.33
2022-09-28T09:13:12.343Z,1.70
2022-09-28T09:15:56.412Z,1.70
2022-09-28T09:18:47.625Z,1.45
2022-09-28T09:21:42.179Z,1.70
2022-09-28T09:24:27.279Z,2.17
2022-09-28T09:27:41.348Z,1.65
2022-09-28T09:30:18.700Z,1.00
2022-09-28T09:33:25.082Z,2.03
2022-09-28T09:36:18.132Z,1.40
2022-09-28T09:39:24.199Z,0.70
2022-09-28T09:42:35.716Z,1.15
2022-09-28T09:45:48.223Z,0.98
2022-09-28T09:48:47.289Z,1.15
2022-09-28T09:51:26.064Z,0.80
2022-09-28T09:54:02.402Z,0.77
2022-09-28T09:56:57.382Z,0.50
2022-09-28T09:59:45.359Z,1.30
2022-09-28T10:02:35.030Z,0.50
2022-09-28T10:05:23.358Z,0.63
2022-09-28T10:08:10.362Z,1.08
2022-09-28T10:10:50.061Z,0.70
2022-09-28T10:13:19.376Z,0.40
2022-09-28T10:15:48.202Z,0.98
2022-09-28T10:18:23.335Z,1.15
2022-09-28T10:21:15.383Z,0.60
2022-09-28T10:23:59.221Z,0.90
2022-09-28T10:26:39.751Z,0.75
2022-09-28T10:29:23.001Z,1.13
2022-09-28T10:31:52.403Z,0.65
2022-09-28T10:34:35.659Z,0.85
2022-09-28T10:37:13.372Z,0.73
2022-09-28T10:40:06.842Z,1.05
2022-09-28T10:42:36.422Z,1.98
2022-09-28T10:45:23.260Z,0.90
2022-09-28T10:47:53.885Z,2.28
2022-09-28T10:50:26.281Z,1.33
2022-09-28T10:53:21.761Z,2.85
2022-09-28T10:56:23.359Z,1.33
2022-09-28T10:59:28.566Z,3.88
2022-09-28T11:02:48.747Z,1.55
2022-09-28T11:05:29.007Z,1.27
2022-09-28T11:08:02.563Z,1.38
2022-09-28T11:10:38.069Z,1.67
2022-09-28T11:13:12.542Z,1.75
2022-09-28T11:15:44.464Z,2.28
2022-09-28T11:18:34.517Z,1.23
2022-09-28T11:21:21.507Z,0.47
2022-09-28T11:24:19.508Z,1.42
2022-09-28T11:26:52.925Z,1.05
2022-09-28T11:29:35.008Z,0.70
2022-09-28T11:32:30.702Z,0.90
2022-09-28T11:35:50.644Z,1.23
2022-09-28T11:38:36.231Z,1.42
2022-09-28T11:41:34.918Z,1.02
2022-09-28T11:44:29.467Z,1.23
2022-09-28T11:47:25.634Z,0.63
2022-09-28T11:50:23.732Z,0.80
2022-09-28T11:53:10.500Z,1.25
2022-09-28T11:55:54.326Z,0.90
2022-09-28T11:58:45.044Z,0.75
2022-09-28T12:01:36.151Z,1.00
2022-09-28T12:04:39.583Z,0.73
2022-09-28T12:07:18.019Z,1.63
2022-09-28T12:10:13.516Z,2.50
2022-09-28T12:12:52.536Z,0.88
2022-09-28T12:15:24.374Z,1.60
2022-09-28T12:18:07.427Z,1.33
2022-09-28T12:20:42.709Z,2.58
2022-09-28T12:23:25.957Z,1.33
2022-09-28T12:26:04.830Z,0.70
2022-09-28T12:28:40.126Z,0.82
2022-09-28T12:31:26.424Z,1.42
2022-09-28T12:33:53.373Z,1.13
2022-09-28T12:36:56.558Z,0.68
2022-09-28T12:40:02.252Z,1.40
2022-09-28T12:42:53.066Z,1.00
2022-09-28T12:46:11.972Z,0.98
2022-09-28T12:48:52.925Z,0.82
2022-09-28T12:51:57.619Z,1.08
2022-09-28T12:55:15.234Z,1.90
2022-09-28T12:58:00.227Z,1.13
2022-09-28T13:00:55.019Z,1.38
2022-09-28T13:03:31.195Z,1.40
2022-09-28T13:09:14.773Z,1.23
2022-09-28T13:11:54.599Z,2.53
2022-09-28T13:14:51.365Z,1.88
2022-09-28T13:18:04.126Z,1.10
2022-09-28T13:24:04.332Z,0.85
2022-09-28T13:26:44.993Z,0.90
2022-09-28T13:29:16.244Z,1.33
2022-09-28T13:34:38.279Z,1.00
2022-09-28T13:37:23.427Z,0.68
2022-09-28T13:40:05.826Z,0.85
2022-09-28T13:42:45.154Z,0.90
2022-09-28T13:45:21.503Z,1.10
2022-09-28T13:47:51.921Z,1.45
2022-09-28T13:51:11.519Z,1.02
2022-09-28T13:53:56.384Z,0.85
2022-09-28T13:56:49.658Z,1.23
2022-09-28T13:59:29.852Z,1.15
2022-09-28T14:02:30.339Z,1.00
2022-09-28T14:05:02.291Z,0.60
2022-09-28T14:07:35.066Z,1.60
2022-09-28T14:10:22.237Z,0.68
2022-09-28T14:12:54.143Z,1.70
2022-09-28T14:15:30.305Z,1.10
2022-09-28T14:18:54.962Z,1.45
2022-09-28T14:22:19.541Z,1.10
2022-09-28T14:25:15.265Z,1.63
2022-09-28T14:28:01.739Z,1.63
2022-09-28T14:30:45.408Z,1.52
2022-09-28T14:33:33.679Z,1.42
2022-09-28T14:36:05.220Z,0.95
2022-09-28T14:39:02.869Z,0.90
2022-09-28T14:41:43.157Z,1.17
2022-09-28T14:44:13.487Z,0.82
2022-09-28T14:46:47.876Z,1.42
2022-09-28T14:49:17.631Z,1.83
2022-09-28T14:51:47.529Z,1.80
2022-09-28T14:54:23.575Z,1.48
2022-09-28T14:56:53.601Z,1.70
2022-09-28T14:59:30.916Z,2.15
2022-09-28T15:02:01.333Z,1.25
2022-09-28T15:04:31.268Z,0.85
2022-09-28T15:06:58.329Z,0.57
2022-09-28T15:09:36.547Z,1.13
2022-09-28T15:12:15.143Z,0.80
2022-09-28T15:14:48.138Z,0.60
2022-09-28T15:17:23.553Z,0.83
2022-09-28T15:20:02.701Z,0.73
2022-09-28T15:22:30.271Z,0.73
2022-09-28T15:25:02.449Z,0.95
2022-09-28T15:27:37.498Z,0.53
2022-09-28T15:30:25.471Z,0.82
2022-09-28T15:33:16.977Z,0.70
2022-09-28T15:35:56.764Z,1.67
2022-09-28T15:38:24.166Z,0.52
2022-09-28T15:40:51.522Z,0.60
2022-09-28T15:43:27.004Z,0.82
2022-09-28T15:46:08.079Z,1.02
2022-09-28T15:48:46.669Z,1.27
2022-09-28T15:51:13.803Z,0.82
2022-09-28T15:53:59.076Z,0.43
2022-09-28T15:56:27.664Z,0.68
2022-09-28T15:59:33.153Z,0.73
2022-09-28T16:02:23.002Z,0.73
2022-09-28T16:05:01.963Z,1.08
2022-09-28T16:07:35.326Z,1.10
2022-09-28T16:10:12.956Z,1.05
2022-09-28T16:12:40.546Z,1.27
2022-09-28T16:15:20.160Z,1.33
2022-09-28T16:17:56.241Z,1.10
2022-09-28T16:20:29.995Z,1.33
2022-09-28T16:23:08.620Z,1.13
2022-09-28T16:25:39.076Z,1.27
2022-09-28T16:28:07.650Z,0.82
2022-09-28T16:30:37.047Z,1.10
2022-09-28T16:33:30.250Z,1.00
2022-09-28T16:36:03.431Z,1.58
2022-09-28T16:38:31.673Z,2.00
2022-09-28T16:41:02.286Z,2.40
2022-09-28T16:43:31.601Z,2.45
2022-09-28T16:46:14.686Z,1.70
2022-09-28T16:48:49.089Z,2.33
2022-09-28T16:51:18.790Z,2.22
2022-09-28T16:54:05.004Z,2.67
2022-09-28T16:56:34.564Z,2.17
2022-09-28T16:59:02.758Z,2.63
2022-09-28T17:01:31.214Z,2.80
2022-09-28T17:03:58.558Z,3.20
2022-09-28T17:06:26.584Z,3.95
2022-09-28T17:08:56.670Z,3.95
2022-09-28T17:11:25.088Z,4.13
2022-09-28T17:13:56.868Z,3.78
2022-09-28T17:16:51.011Z,3.47
2022-09-28T17:19:24.929Z,4.65
2022-09-28T17:21:53.788Z,3.47
2022-09-28T17:24:21.389Z,4.82
2022-09-28T17:26:51.983Z,4.40
2022-09-28T17:29:20.050Z,4.55
2022-09-28T17:31:48.018Z,5.07
2022-09-28T17:34:17.676Z,4.18
2022-09-28T17:36:45.614Z,4.68
2022-09-28T17:39:19.127Z,4.65
2022-09-28T17:44:17.541Z,5.05
2022-09-28T17:46:49.083Z,5.75
2022-09-28T17:49:18.572Z,5.40
2022-09-28T17:51:48.499Z,4.82
2022-09-28T17:54:19.311Z,5.00
2022-09-28T17:56:50.435Z,5.35
2022-09-28T17:59:21.249Z,5.07
2022-09-28T18:01:49.292Z,4.78
2022-09-28T18:04:40.154Z,5.38
2022-09-28T18:07:06.744Z,5.15
2022-09-28T18:09:35.087Z,5.10
2022-09-28T18:12:06.386Z,6.72
2022-09-28T18:14:35.822Z,4.82
2022-09-28T18:17:03.557Z,5.78
2022-09-28T18:19:32.283Z,6.05
2022-09-28T18:22:02.875Z,4.85
2022-09-28T18:24:32.450Z,5.07
2022-09-28T18:27:02.982Z,4.47
2022-09-28T18:29:33.307Z,4.93
2022-09-28T18:32:04.354Z,4.80
2022-09-28T18:34:39.962Z,4.55
2022-09-28T18:37:08.510Z,4.35
2022-09-28T18:39:37.225Z,4.35
2022-09-28T18:42:07.137Z,4.18
2022-09-28T18:44:37.174Z,4.40
2022-09-28T18:47:05.371Z,4.65
2022-09-28T18:49:33.605Z,3.78
2022-09-28T18:52:03.489Z,3.83
2022-09-28T18:54:31.584Z,6.10
2022-09-28T18:57:00.707Z,3.55
2022-09-28T18:59:29.261Z,3.92
2022-09-28T19:02:00.816Z,3.42
2022-09-28T19:04:30.533Z,3.25
2022-09-28T19:09:26.535Z,3.67
2022-09-28T19:11:55.196Z,3.95
2022-09-28T19:14:25.854Z,3.58
2022-09-28T19:16:56.039Z,3.70
2022-09-28T19:19:24.235Z,3.95
2022-09-28T19:21:53.122Z,3.25
2022-09-28T19:24:21.770Z,4.00
2022-09-28T19:26:53.486Z,3.35
2022-09-28T19:29:23.475Z,2.75
2022-09-28T19:31:52.393Z,3.25
2022-09-28T19:34:21.875Z,2.83
2022-09-28T19:36:50.738Z,3.38
2022-09-28T19:39:18.430Z,3.40
2022-09-28T19:41:53.020Z,3.35
2022-09-28T19:47:07.492Z,3.20
2022-09-28T19:49:38.639Z,3.72
2022-09-28T19:52:16.491Z,3.45
2022-09-28T19:55:01.594Z,2.80
2022-09-28T19:57:33.487Z,2.67
2022-09-28T20:00:03.850Z,3.15
2022-09-28T20:02:39.090Z,3.63
2022-09-28T20:05:10.118Z,3.50
2022-09-28T20:07:39.846Z,3.92
2022-09-28T20:10:13.776Z,3.50
2022-09-28T20:12:44.111Z,3.45
2022-09-28T20:15:16.279Z,3.42
2022-09-28T20:17:45.913Z,3.37
2022-09-28T20:20:14.539Z,3.38
2022-09-28T20:22:43.943Z,3.45
2022-09-28T20:25:13.280Z,3.42
2022-09-28T20:27:41.556Z,3.63
2022-09-28T20:30:09.654Z,4.03
2022-09-28T20:32:39.693Z,3.53
2022-09-28T20:35:08.501Z,3.33
2022-09-28T20:37:36.178Z,3.53
2022-09-28T20:40:05.620Z,3.78
2022-09-28T20:42:35.183Z,4.30
2022-09-28T20:45:05.670Z,3.92
2022-09-28T20:47:33.292Z,3.72
2022-09-28T20:50:02.853Z,3.78
2022-09-28T20:52:32.310Z,3.10
2022-09-28T20:55:01.089Z,3.42
2022-09-28T20:57:28.842Z,4.30
2022-09-28T20:59:57.774Z,4.32
2022-09-28T21:02:27.547Z,3.83
2022-09-28T21:04:54.654Z,3.00
2022-09-28T21:07:22.388Z,4.45
2022-09-28T21:09:51.025Z,4.15
2022-09-28T21:12:23.634Z,3.83
2022-09-28T21:14:53.391Z,4.45
2022-09-28T21:17:22.968Z,4.63
2022-09-28T21:19:51.970Z,5.22
2022-09-28T21:22:22.274Z,4.47
2022-09-28T21:24:49.128Z,4.65
2022-09-28T21:27:18.837Z,4.20
2022-09-28T21:29:51.536Z,4.80
2022-09-28T21:32:19.513Z,4.93
2022-09-28T21:34:49.311Z,5.65
2022-09-28T21:37:18.174Z,4.28
2022-09-28T21:39:47.933Z,5.50
2022-09-28T21:42:17.634Z,5.10
2022-09-28T21:44:45.803Z,4.45
2022-09-28T21:47:13.981Z,5.22
2022-09-28T21:49:40.967Z,5.43
2022-09-28T21:52:08.642Z,4.80
2022-09-28T21:54:37.814Z,5.22
2022-09-28T21:57:06.882Z,4.95
2022-09-28T21:59:34.605Z,5.20
2022-09-28T22:02:02.078Z,4.72
2022-09-28T22:04:29.498Z,4.82
2022-09-28T22:06:56.835Z,5.72
2022-09-28T22:09:23.967Z,4.88
2022-09-28T22:11:51.247Z,4.80
2022-09-28T22:14:18.554Z,5.00
2022-09-28T22:16:45.621Z,6.93
2022-09-28T22:19:12.643Z,5.43
2022-09-28T22:21:39.839Z,6.85
2022-09-28T22:24:07.703Z,6.70
2022-09-28T22:26:37.003Z,5.25
2022-09-28T22:29:07.698Z,4.65
2022-09-28T22:31:38.735Z,5.35
2022-09-28T22:34:07.572Z,5.45
2022-09-28T22:36:35.069Z,6.22
2022-09-28T22:39:02.230Z,5.38
2022-09-28T22:41:30.057Z,5.90
2022-09-28T22:43:57.505Z,4.75
2022-09-28T22:46:27.387Z,4.45
2022-09-28T22:48:57.722Z,5.15
2022-09-28T22:51:27.767Z,6.30
2022-09-28T22:53:56.541Z,6.03
2022-09-28T22:56:23.884Z,5.85
2022-09-28T22:58:50.799Z,6.03
2022-09-28T23:01:27.454Z,5.60
2022-09-28T23:03:56.521Z,7.05
2022-09-28T23:06:28.340Z,6.83
2022-09-28T23:08:55.277Z,6.93
2022-09-28T23:11:22.441Z,7.88
2022-09-28T23:13:55.495Z,7.53
2022-09-28T23:16:25.526Z,6.65
2022-09-28T23:18:54.737Z,7.38
2022-09-28T23:21:25.444Z,7.25
2022-09-28T23:24:01.498Z,7.60
2022-09-28T23:26:32.072Z,7.75
2022-09-28T23:28:59.745Z,7.32
2022-09-28T23:31:30.463Z,7.75
2022-09-28T23:34:00.257Z,8.15
2022-09-28T23:36:28.047Z,8.55
2022-09-28T23:38:55.263Z,8.70
2022-09-28T23:41:22.289Z,7.65
2022-09-28T23:43:49.275Z,7.30
2022-09-28T23:46:20.432Z,8.85
2022-09-28T23:48:49.210Z,8.50
2022-09-28T23:51:17.044Z,8.38
2022-09-28T23:53:44.468Z,8.10
2022-09-28T23:56:12.077Z,8.18
2022-09-28T23:58:39.062Z,7.57
